Time;durP1;ratioP1;P1;durP2;ratioP2;P2;SDS_P1;SDS_P2;PMS_P1;PMS_P2;Temp;Humidity;BMP_temperature;BMP_pressure;BME280_temperature;BME280_humidity;BME280_pressure;Samples;Min_cycle;Max_cycle;Signal;HPM_P1;HPM_P2
2024/01/24 00:00:01;;;;;;;;;;;;;;;19.80;41.48;100908.81;2086071;28;2191;-64
2024/01/24 00:01:02;;;;;;;;;;;;;;;19.81;41.52;100910.28;2086635;28;5979;-64
2024/01/24 00:02:04;;;;;;;;;;;;;;;19.80;41.47;100903.06;2088595;28;2290;-64
2024/01/24 00:03:05;;;;;;;;;;;;;;;19.80;41.62;100885.81;2085656;28;2237;-64
2024/01/24 00:04:07;;;;;;;;;;;;;;;19.79;41.65;100885.09;2083558;28;2441;-64
2024/01/24 00:05:08;;;;;;;;;;;;;;;19.78;41.52;100892.22;2087272;28;2272;-63
2024/01/24 00:06:10;;;;;;;;;;;;;;;19.78;41.61;100879.97;2084163;28;2564;-64
2024/01/24 00:07:13;;;;;;;;;;;;;;;19.78;41.59;100877.09;2090285;28;2233;-64
2024/01/24 00:08:15;;;;;;;;;;;;;;;19.78;41.62;100877.09;2086564;28;1935;-64
2024/01/24 00:09:16;;;;;;;;;;;;;;;19.78;41.55;100865.63;2083495;28;2222;-64
2024/01/24 00:10:17;;;;;;;;;;;;;;;19.78;41.52;100865.63;2085690;28;2369;-64
2024/01/24 00:11:19;;;;;;;;;;;;;;;19.77;41.53;100864.88;2086226;28;1928;-64
2024/01/24 00:12:20;;;;;;;;;;;;;;;19.77;41.56;100841.13;2089426;28;1681;-64
2024/01/24 00:13:22;;;;;;;;;;;;;;;19.76;41.57;100845.41;2084696;28;2148;-64
2024/01/24 00:14:23;;;;;;;;;;;;;;;19.77;41.44;100839.00;2085800;28;1659;-64
2024/01/24 00:15:24;;;;;;;;;;;;;;;19.76;41.54;100834.63;2083972;28;2275;-64
2024/01/24 00:16:26;;;;;;;;;;;;;;;19.76;41.49;100822.41;2086592;28;2311;-64
2024/01/24 00:17:30;;;;;;;;;;;;;;;19.77;41.46;100824.66;2086439;28;2468;-64
2024/01/24 00:18:31;;;;;;;;;;;;;;;19.76;41.53;100822.41;2084459;28;1714;-64
2024/01/24 00:19:33;;;;;;;;;;;;;;;19.76;41.49;100819.53;2083566;28;2377;-64
2024/01/24 00:20:35;;;;;;;;;;;;;;;19.74;41.46;100820.19;2084679;28;2123;-64
2024/01/24 00:21:37;;;;;;;;;;;;;;;19.76;41.55;100805.19;2083217;28;2370;-63
2024/01/24 00:22:39;;;;;;;;;;;;;;;19.75;41.44;100804.44;2087597;28;2058;-64
2024/01/24 00:23:40;;;;;;;;;;;;;;;19.76;41.49;100793.69;2087220;28;1562;-64
2024/01/24 00:24:41;;;;;;;;;;;;;;;19.75;41.44;100786.47;2085506;28;1604;-64
2024/01/24 00:25:43;;;;;;;;;;;;;;;19.75;41.48;100786.47;2086771;28;2390;-64
2024/01/24 00:26:44;;;;;;;;;;;;;;;19.74;41.41;100790.72;2086613;28;2529;-64
2024/01/24 00:27:46;;;;;;;;;;;;;;;19.74;41.50;100785.69;2082571;28;2295;-64
2024/01/24 00:28:48;;;;;;;;;;;;;;;19.74;41.54;100790.72;2084073;28;1914;-64
2024/01/24 00:29:49;;;;;;;;;;;;;;;19.73;41.53;100792.09;2087368;28;2479;-64
2024/01/24 00:30:50;;;;;;;;;;;;;;;19.72;41.46;100782.00;2086224;28;6964;-64
2024/01/24 00:31:52;;;;;;;;;;;;;;;19.72;41.53;100782.72;2086038;28;1575;-64
2024/01/24 00:32:53;;;;;;;;;;;;;;;19.73;41.45;100783.50;2082955;28;2251;-64
2024/01/24 00:33:55;;;;;;;;;;;;;;;19.74;41.45;100779.22;2086885;28;2556;-64
2024/01/24 00:34:57;;;;;;;;;;;;;;;19.73;41.50;100772.00;2084502;28;2265;-64
2024/01/24 00:35:58;;;;;;;;;;;;;;;19.73;41.46;100766.25;2085711;28;2246;-64
2024/01/24 00:36:59;;;;;;;;;;;;;;;19.72;41.48;100761.88;2083427;28;2108;-64
2024/01/24 00:38:01;;;;;;;;;;;;;;;19.72;41.46;100750.38;2084805;28;2211;-64
2024/01/24 00:39:02;;;;;;;;;;;;;;;19.71;41.44;100751.78;2086037;28;1843;-64
2024/01/24 00:40:04;;;;;;;;;;;;;;;19.70;41.58;100733.81;2086425;28;2259;-64
2024/01/24 00:41:05;;;;;;;;;;;;;;;19.70;41.41;100733.06;2082718;28;2441;-64
2024/01/24 00:42:07;;;;;;;;;;;;;;;19.70;41.46;100727.31;2085477;28;1834;-64
2024/01/24 00:43:08;;;;;;;;;;;;;;;19.69;41.42;100723.69;2087112;28;2074;-64
2024/01/24 00:44:10;;;;;;;;;;;;;;;19.69;41.52;100729.44;2089818;28;1609;-64
2024/01/24 00:45:12;;;;;;;;;;;;;;;19.70;41.54;100727.31;2083948;28;2252;-64
2024/01/24 00:46:13;;;;;;;;;;;;;;;19.70;41.53;100710.06;2084338;28;2301;-64
2024/01/24 00:47:14;;;;;;;;;;;;;;;19.67;41.52;100707.06;2083095;28;1541;-64
2024/01/24 00:48:16;;;;;;;;;;;;;;;19.69;41.54;100702.84;2085294;28;1791;-64
2024/01/24 00:49:18;;;;;;;;;;;;;;;19.67;41.54;100707.06;2085000;28;2259;-63
2024/01/24 00:50:19;;;;;;;;;;;;;;;19.67;41.47;100698.44;2082811;28;2327;-64
2024/01/24 00:51:21;;;;;;;;;;;;;;;19.66;41.46;100688.38;2091119;28;1803;-63
2024/01/24 00:52:23;;;;;;;;;;;;;;;19.66;41.47;100685.50;2086565;28;1795;-64
2024/01/24 00:53:25;;;;;;;;;;;;;;;19.67;41.43;100692.72;2083166;28;2307;-64
2024/01/24 00:54:26;;;;;;;;;;;;;;;19.66;41.47;100679.00;2084787;28;2403;-64
2024/01/24 00:55:27;;;;;;;;;;;;;;;19.65;41.50;100684.03;2086004;28;2255;-64
2024/01/24 00:56:29;;;;;;;;;;;;;;;19.65;41.32;100675.41;2090361;28;1579;-64
2024/01/24 00:57:31;;;;;;;;;;;;;;;19.65;41.47;100666.78;2093182;28;1550;-64
2024/01/24 00:58:33;;;;;;;;;;;;;;;19.66;41.41;100665.38;2085826;28;1584;-64
2024/01/24 00:59:34;;;;;;;;;;;;;;;19.65;41.51;100663.91;2084197;28;1720;-64
2024/01/24 01:00:36;;;;;;;;;;;;;;;19.64;41.52;100644.44;2083253;28;5982;-64
2024/01/24 01:01:37;;;;;;;;;;;;;;;19.65;41.49;100645.91;2087602;28;2258;-64
2024/01/24 01:02:39;;;;;;;;;;;;;;;19.65;41.58;100631.56;2084592;28;2337;-64
2024/01/24 01:03:40;;;;;;;;;;;;;;;19.64;41.36;100625.06;2085684;28;1931;-64
2024/01/24 01:04:42;;;;;;;;;;;;;;;19.62;41.48;100604.88;2084900;28;2216;-64
2024/01/24 01:05:43;;;;;;;;;;;;;;;19.63;41.49;100597.75;2086958;28;2270;-64
2024/01/24 01:06:44;;;;;;;;;;;;;;;19.63;41.28;100612.13;2085311;28;2366;-64
2024/01/24 01:07:46;;;;;;;;;;;;;;;19.63;41.42;100603.50;2083290;28;2287;-64
2024/01/24 01:08:47;;;;;;;;;;;;;;;19.63;41.53;100614.97;2084711;28;2265;-64
2024/01/24 01:09:49;;;;;;;;;;;;;;;19.63;41.45;100614.22;2083696;28;2015;-64
2024/01/24 01:10:50;;;;;;;;;;;;;;;19.62;41.43;100619.22;2083858;28;2350;-64
2024/01/24 01:11:52;;;;;;;;;;;;;;;19.63;41.44;100620.72;2086046;28;2267;-64
2024/01/24 01:12:54;;;;;;;;;;;;;;;19.63;41.44;100608.47;2085346;28;2593;-64
2024/01/24 01:13:55;;;;;;;;;;;;;;;19.62;41.42;100602.00;2083094;28;2297;-64
2024/01/24 01:14:56;;;;;;;;;;;;;;;19.62;41.52;100602.00;2086956;28;2429;-64
2024/01/24 01:15:58;;;;;;;;;;;;;;;19.62;41.45;100601.25;2081157;28;2503;-64
2024/01/24 01:16:59;;;;;;;;;;;;;;;19.62;41.54;100589.78;2081913;28;2255;-64
2024/01/24 01:18:01;;;;;;;;;;;;;;;19.61;41.44;100594.06;2084847;28;1701;-64
2024/01/24 01:19:02;;;;;;;;;;;;;;;19.61;41.46;100583.28;2086704;28;1621;-64
2024/01/24 01:20:05;;;;;;;;;;;;;;;19.60;41.50;100593.28;2081348;28;2243;-64
2024/01/24 01:21:06;;;;;;;;;;;;;;;19.60;41.55;100581.81;2080562;28;1867;-64
2024/01/24 01:22:07;;;;;;;;;;;;;;;19.60;41.47;100570.31;2083101;28;2196;-64
2024/01/24 01:23:09;;;;;;;;;;;;;;;19.59;41.49;100571.72;2088172;28;1848;-64
2024/01/24 01:24:11;;;;;;;;;;;;;;;19.59;41.51;100574.59;2085699;28;1890;-64
2024/01/24 01:25:12;;;;;;;;;;;;;;;19.59;41.57;100577.47;2083905;28;2114;-64
2024/01/24 01:26:14;;;;;;;;;;;;;;;19.59;41.54;100580.31;2084643;28;2359;-64
2024/01/24 01:27:15;;;;;;;;;;;;;;;19.60;41.59;100576.06;2081530;28;2352;-64
2024/01/24 01:28:16;;;;;;;;;;;;;;;19.58;41.45;100564.47;2086429;28;2144;-64
2024/01/24 01:29:18;;;;;;;;;;;;;;;19.59;41.49;100576.72;2087750;28;1973;-64
2024/01/24 01:30:21;;;;;;;;;;;;;;;19.58;41.44;100560.88;2080304;28;6087;-64
2024/01/24 01:31:22;;;;;;;;;;;;;;;19.58;41.52;100561.59;2083516;28;1907;-64
2024/01/24 01:32:23;;;;;;;;;;;;;;;19.58;41.43;100549.38;2084727;28;1911;-64
2024/01/24 01:33:26;;;;;;;;;;;;;;;19.58;41.47;100550.13;2084287;28;1746;-64
2024/01/24 01:34:27;;;;;;;;;;;;;;;19.59;41.50;100553.75;2082807;28;2177;-64
2024/01/24 01:35:29;;;;;;;;;;;;;;;19.58;41.32;100543.63;2085311;28;2177;-64
2024/01/24 01:36:30;;;;;;;;;;;;;;;19.57;41.44;100528.53;2086063;28;2223;-64
2024/01/24 01:37:32;;;;;;;;;;;;;;;19.57;41.51;100524.94;2086602;28;2476;-64
2024/01/24 01:38:34;;;;;;;;;;;;;;;19.57;41.49;100519.91;2086519;28;2345;-64
2024/01/24 01:39:37;;;;;;;;;;;;;;;19.56;41.56;100518.44;2084978;28;2243;-64
2024/01/24 01:40:38;;;;;;;;;;;;;;;19.56;41.39;100515.56;2084812;28;2336;-64
2024/01/24 01:41:40;;;;;;;;;;;;;;;19.56;41.51;100524.19;2088300;28;1709;-64
2024/01/24 01:42:42;;;;;;;;;;;;;;;19.57;41.41;100516.31;2086531;28;2283;-64
2024/01/24 01:43:44;;;;;;;;;;;;;;;19.56;41.44;100511.94;2084970;28;2212;-63
2024/01/24 01:44:46;;;;;;;;;;;;;;;19.57;41.36;100502.69;2085803;28;2160;-64
2024/01/24 01:45:47;;;;;;;;;;;;;;;19.56;41.40;100506.97;2087224;28;2286;-64
2024/01/24 01:46:51;;;;;;;;;;;;;;;19.56;41.46;100501.22;2082836;28;2150;-64
2024/01/24 01:47:52;;;;;;;;;;;;;;;19.56;41.48;100495.47;2083707;28;2374;-64
2024/01/24 01:48:55;;;;;;;;;;;;;;;19.55;41.45;100496.13;2084866;28;2308;-64
2024/01/24 01:49:57;;;;;;;;;;;;;;;19.55;41.47;100499.72;2086221;28;2312;-64
2024/01/24 01:50:58;;;;;;;;;;;;;;;19.55;41.45;100488.25;2079347;28;2299;-64
2024/01/24 01:52:00;;;;;;;;;;;;;;;19.55;41.49;100493.97;2085098;28;1991;-64
2024/01/24 01:53:01;;;;;;;;;;;;;;;19.56;41.50;100495.47;2085939;28;1635;-64
2024/01/24 01:54:03;;;;;;;;;;;;;;;19.55;41.50;100493.97;2086855;28;1630;-64
2024/01/24 01:55:04;;;;;;;;;;;;;;;19.55;41.49;100493.97;2085873;28;2302;-64
2024/01/24 01:56:07;;;;;;;;;;;;;;;19.57;41.40;100496.94;2085856;28;2433;-64
2024/01/24 01:57:11;;;;;;;;;;;;;;;19.57;41.44;100493.34;2077576;28;2336;-64
2024/01/24 01:58:13;;;;;;;;;;;;;;;19.58;41.36;100486.91;2085150;28;2479;-64
2024/01/24 01:59:14;;;;;;;;;;;;;;;19.57;41.42;100488.34;2081013;28;1912;-64
2024/01/24 02:00:20;;;;;;;;;;;;;;;19.57;41.48;100479.72;2084184;28;6289;-64
2024/01/24 02:01:22;;;;;;;;;;;;;;;19.58;41.34;100469.69;2082045;28;2326;-64
2024/01/24 02:02:23;;;;;;;;;;;;;;;19.58;41.39;100466.81;2083741;28;1633;-64
2024/01/24 02:03:25;;;;;;;;;;;;;;;19.59;41.38;100471.19;2084794;28;1876;-64
2024/01/24 02:04:27;;;;;;;;;;;;;;;19.59;41.45;100465.44;2082318;28;2113;-64
2024/01/24 02:05:29;;;;;;;;;;;;;;;19.59;41.39;100453.94;2083477;28;2436;-64
2024/01/24 02:06:30;;;;;;;;;;;;;;;19.59;41.44;100448.22;2084307;28;2361;-64
2024/01/24 02:07:32;;;;;;;;;;;;;;;19.59;41.44;100442.47;2086152;28;2256;-64
2024/01/24 02:08:35;;;;;;;;;;;;;;;19.60;41.42;100437.44;2083796;28;2248;-64
2024/01/24 02:09:36;;;;;;;;;;;;;;;19.59;41.44;100439.59;2084741;28;2687;-64
2024/01/24 02:10:38;;;;;;;;;;;;;;;19.60;41.41;100432.44;2086856;28;1685;-64
2024/01/24 02:11:40;;;;;;;;;;;;;;;19.60;41.39;100426.69;2086679;28;1689;-64
2024/01/24 02:12:41;;;;;;;;;;;;;;;19.60;41.33;100423.81;2084666;28;1912;-64
2024/01/24 02:13:43;;;;;;;;;;;;;;;19.60;41.49;100425.97;2088092;28;2618;-64
2024/01/24 02:14:44;;;;;;;;;;;;;;;19.61;41.37;100427.47;2086703;28;1618;-64
2024/01/24 02:15:46;;;;;;;;;;;;;;;19.60;41.42;100438.19;2083986;28;2287;-64
2024/01/24 02:16:47;;;;;;;;;;;;;;;19.61;41.42;100438.94;2079953;28;2256;-64
2024/01/24 02:17:48;;;;;;;;;;;;;;;19.60;41.40;100435.31;2086839;28;2243;-64
2024/01/24 02:18:50;;;;;;;;;;;;;;;19.60;41.47;100432.44;2086028;28;2072;-64
2024/01/24 02:19:51;;;;;;;;;;;;;;;19.60;41.50;100438.19;2084130;28;2278;-64
2024/01/24 02:20:53;;;;;;;;;;;;;;;19.60;41.48;100432.44;2083042;28;2370;-64
2024/01/24 02:21:54;;;;;;;;;;;;;;;19.58;41.48;100440.97;2086154;28;1732;-64
2024/01/24 02:22:56;;;;;;;;;;;;;;;19.59;41.43;100436.00;2084877;28;2130;-64
2024/01/24 02:23:58;;;;;;;;;;;;;;;19.60;41.42;100431.72;2084068;28;2379;-64
2024/01/24 02:24:59;;;;;;;;;;;;;;;19.58;41.45;100443.84;2086333;28;1655;-64
2024/01/24 02:26:01;;;;;;;;;;;;;;;19.59;41.42;100430.25;2086029;28;1767;-64
2024/01/24 02:27:02;;;;;;;;;;;;;;;19.58;41.57;100435.22;2080094;28;2077;-64
2024/01/24 02:28:04;;;;;;;;;;;;;;;19.58;41.54;100423.75;2086032;28;2050;-64
2024/01/24 02:29:06;;;;;;;;;;;;;;;19.58;41.52;100423.75;2083771;28;1645;-64
2024/01/24 02:30:08;;;;;;;;;;;;;;;19.57;41.54;100425.16;2080535;28;6010;-64
2024/01/24 02:31:09;;;;;;;;;;;;;;;19.57;41.56;100407.91;2087677;28;1701;-64
2024/01/24 02:32:10;;;;;;;;;;;;;;;19.58;41.50;100411.53;2082443;28;2134;-64
2024/01/24 02:33:12;;;;;;;;;;;;;;;19.58;41.55;100400.03;2090051;28;1757;-64
2024/01/24 02:34:14;;;;;;;;;;;;;;;19.57;41.58;100410.78;2084019;28;2328;-64
2024/01/24 02:35:15;;;;;;;;;;;;;;;19.56;41.55;100403.56;2085014;28;2358;-64
2024/01/24 02:36:17;;;;;;;;;;;;;;;19.56;41.56;100412.19;2084611;28;2175;-64
2024/01/24 02:37:20;;;;;;;;;;;;;;;19.56;41.53;100397.81;2083018;28;2105;-64
2024/01/24 02:38:23;;;;;;;;;;;;;;;19.56;41.60;100388.44;2081606;28;2309;-64
2024/01/24 02:39:24;;;;;;;;;;;;;;;19.55;41.60;100379.09;2085877;28;2307;-64
2024/01/24 02:40:26;;;;;;;;;;;;;;;19.56;41.56;100397.06;2084075;28;2283;-64
2024/01/24 02:41:27;;;;;;;;;;;;;;;19.55;41.59;100396.34;2081960;28;2196;-64
2024/01/24 02:42:29;;;;;;;;;;;;;;;19.54;41.62;100397.75;2086609;28;1636;-64
2024/01/24 02:43:30;;;;;;;;;;;;;;;19.54;41.68;100379.75;2084219;28;1845;-64
2024/01/24 02:44:31;;;;;;;;;;;;;;;19.55;41.64;100390.59;2084735;28;1815;-64
2024/01/24 02:45:33;;;;;;;;;;;;;;;19.54;41.60;100369.03;2086701;28;2207;-64
2024/01/24 02:46:35;;;;;;;;;;;;;;;19.54;41.57;100371.91;2085330;28;2018;-64
2024/01/24 02:47:36;;;;;;;;;;;;;;;19.55;41.57;100366.88;2086745;28;1765;-64
2024/01/24 02:48:39;;;;;;;;;;;;;;;19.54;41.57;100359.66;2097205;28;2351;-64
2024/01/24 02:49:41;;;;;;;;;;;;;;;19.52;41.66;100363.19;2097873;28;2273;-64
2024/01/24 02:50:42;;;;;;;;;;;;;;;19.53;41.72;100381.88;2085334;28;2274;-64
2024/01/24 02:51:44;;;;;;;;;;;;;;;19.53;41.63;100370.41;2083135;28;2265;-64
2024/01/24 02:52:45;;;;;;;;;;;;;;;19.53;41.72;100367.53;2082519;28;2273;-64
2024/01/24 02:53:46;;;;;;;;;;;;;;;19.53;41.65;100364.66;2085706;28;1813;-64
2024/01/24 02:54:48;;;;;;;;;;;;;;;19.53;41.56;100343.81;2082415;28;2328;-64
2024/01/24 02:55:49;;;;;;;;;;;;;;;19.52;41.63;100345.97;2098316;28;2319;-64
2024/01/24 02:56:51;;;;;;;;;;;;;;;19.52;41.62;100330.88;2099173;28;2354;-64
2024/01/24 02:57:52;;;;;;;;;;;;;;;19.52;41.66;100339.47;2083698;28;2437;-64
2024/01/24 02:58:54;;;;;;;;;;;;;;;19.52;41.57;100323.00;2084275;28;2307;-64
2024/01/24 02:59:55;;;;;;;;;;;;;;;19.52;41.69;100317.25;2083203;28;2258;-64
2024/01/24 03:00:56;;;;;;;;;;;;;;;19.51;41.61;100335.13;2081179;28;6122;-64
2024/01/24 03:01:58;;;;;;;;;;;;;;;19.51;41.59;100338.72;2086278;28;2324;-64
2024/01/24 03:03:00;;;;;;;;;;;;;;;19.52;41.63;100340.22;2082804;28;2457;-64
2024/01/24 03:04:01;;;;;;;;;;;;;;;19.52;41.68;100343.09;2085818;28;1709;-64
2024/01/24 03:05:05;;;;;;;;;;;;;;;19.52;41.61;100331.59;2084944;28;2309;-64
2024/01/24 03:06:07;;;;;;;;;;;;;;;19.51;41.62;100332.97;2080318;28;2331;-64
2024/01/24 03:07:08;;;;;;;;;;;;;;;19.52;41.70;100328.72;2085655;28;2314;-64
2024/01/24 03:08:10;;;;;;;;;;;;;;;19.51;41.68;100340.88;2081102;28;2627;-64
2024/01/24 03:09:11;;;;;;;;;;;;;;;19.52;41.67;100333.75;2082488;28;1705;-64
2024/01/24 03:10:13;;;;;;;;;;;;;;;19.51;41.76;100330.09;2081184;28;2363;-64
2024/01/24 03:11:14;;;;;;;;;;;;;;;19.51;41.68;100330.09;2084830;28;2211;-64
2024/01/24 03:12:16;;;;;;;;;;;;;;;19.50;41.68;100331.50;2083187;28;2304;-64
2024/01/24 03:13:18;;;;;;;;;;;;;;;19.51;41.70;100332.25;2085058;28;1975;-64
2024/01/24 03:14:21;;;;;;;;;;;;;;;19.50;41.77;100328.66;2085744;28;1852;-64
2024/01/24 03:15:22;;;;;;;;;;;;;;;19.51;41.77;100326.50;2079958;28;2282;-64
2024/01/24 03:16:24;;;;;;;;;;;;;;;19.49;41.71;100324.28;2082292;28;2145;-64
2024/01/24 03:17:25;;;;;;;;;;;;;;;19.49;41.67;100324.28;2084652;28;2321;-64
2024/01/24 03:18:27;;;;;;;;;;;;;;;19.49;41.79;100327.16;2087504;28;2208;-64
2024/01/24 03:19:28;;;;;;;;;;;;;;;19.49;41.72;100330.03;2087278;28;1939;-64
2024/01/24 03:20:30;;;;;;;;;;;;;;;19.49;41.68;100330.03;2085326;28;2322;-64
2024/01/24 03:21:32;;;;;;;;;;;;;;;19.49;41.76;100330.03;2083294;28;2323;-64
2024/01/24 03:22:34;;;;;;;;;;;;;;;19.49;41.59;100330.03;2081835;28;2116;-64
2024/01/24 03:23:38;;;;;;;;;;;;;;;19.49;41.81;100321.41;2086137;28;1995;-64
2024/01/24 03:24:40;;;;;;;;;;;;;;;19.48;41.86;100325.69;2085381;28;1638;-64
2024/01/24 03:25:41;;;;;;;;;;;;;;;19.48;41.73;100322.81;2083694;28;1793;-64
2024/01/24 03:26:43;;;;;;;;;;;;;;;19.48;41.79;100322.81;2091439;28;2389;-64
2024/01/24 03:27:44;;;;;;;;;;;;;;;19.48;41.74;100325.69;2097339;28;2252;-64
2024/01/24 03:28:45;;;;;;;;;;;;;;;19.49;41.73;100324.28;2084233;28;2028;-64
2024/01/24 03:29:48;;;;;;;;;;;;;;;19.47;41.81;100321.34;2081030;28;1598;-64
2024/01/24 03:30:51;;;;;;;;;;;;;;;19.46;41.84;100319.84;2081775;28;5964;-64
2024/01/24 03:31:53;;;;;;;;;;;;;;;19.47;41.74;100315.59;2087273;28;1916;-64
2024/01/24 03:32:54;;;;;;;;;;;;;;;19.47;41.79;100327.09;2087260;28;2275;-64
2024/01/24 03:33:55;;;;;;;;;;;;;;;19.46;41.79;100316.97;2083458;28;2225;-64
2024/01/24 03:34:57;;;;;;;;;;;;;;;19.46;41.79;100316.97;2087783;28;2200;-64
2024/01/24 03:35:59;;;;;;;;;;;;;;;19.46;41.83;100316.97;2085405;28;2305;-64
2024/01/24 03:37:00;;;;;;;;;;;;;;;19.45;41.83;100324.88;2087865;28;2366;-64
2024/01/24 03:38:02;;;;;;;;;;;;;;;19.45;41.87;100319.13;2090020;28;2309;-64
2024/01/24 03:39:03;;;;;;;;;;;;;;;19.45;41.80;100307.63;2084626;28;2271;-64
2024/01/24 03:40:06;;;;;;;;;;;;;;;19.46;41.83;100311.25;2086492;28;1741;-64
2024/01/24 03:41:07;;;;;;;;;;;;;;;19.46;41.72;100311.25;2086176;28;2026;-64
2024/01/24 03:42:08;;;;;;;;;;;;;;;19.46;41.77;100296.88;2088907;28;2207;-64
2024/01/24 03:43:13;;;;;;;;;;;;;;;19.47;41.73;100295.50;2084604;28;2235;-64
2024/01/24 03:44:14;;;;;;;;;;;;;;;19.48;41.72;100296.97;2089901;28;2274;-64
2024/01/24 03:45:15;;;;;;;;;;;;;;;19.49;41.67;100307.06;2084868;28;2274;-64
2024/01/24 03:46:20;;;;;;;;;;;;;;;19.50;41.74;100311.41;2089773;28;1777;-64
2024/01/24 03:47:21;;;;;;;;;;;;;;;19.50;41.76;100304.94;2085628;28;2269;-64
2024/01/24 03:48:23;;;;;;;;;;;;;;;19.51;41.67;100294.91;2084186;28;2223;-64
2024/01/24 03:49:24;;;;;;;;;;;;;;;19.51;41.72;100297.78;2088272;28;2223;-64
2024/01/24 03:50:26;;;;;;;;;;;;;;;19.52;41.65;100294.28;2085356;28;1978;-64
2024/01/24 03:51:28;;;;;;;;;;;;;;;19.51;41.80;100292.78;2083558;28;2441;-64
2024/01/24 03:52:29;;;;;;;;;;;;;;;19.53;41.69;100295.75;2089246;28;1777;-64
2024/01/24 03:53:31;;;;;;;;;;;;;;;19.54;41.77;100290.72;2086956;28;1858;-64
2024/01/24 03:54:33;;;;;;;;;;;;;;;19.55;41.62;100297.97;2084878;28;1888;-64
2024/01/24 03:55:34;;;;;;;;;;;;;;;19.53;41.68;100284.25;2084789;28;2275;-64
2024/01/24 03:56:36;;;;;;;;;;;;;;;19.55;41.67;100292.94;2085794;28;2240;-64
2024/01/24 03:57:37;;;;;;;;;;;;;;;19.56;41.64;100294.44;2083911;28;1906;-64
2024/01/24 03:58:39;;;;;;;;;;;;;;;19.57;41.70;100293.03;2086725;28;1642;-64
2024/01/24 03:59:40;;;;;;;;;;;;;;;19.56;41.68;100294.44;2085486;28;1869;-64
2024/01/24 04:00:41;;;;;;;;;;;;;;;19.57;41.75;100283.69;2084700;28;5971;-64
2024/01/24 04:01:43;;;;;;;;;;;;;;;19.56;41.72;100277.22;2088417;28;2279;-64
2024/01/24 04:02:44;;;;;;;;;;;;;;;19.57;41.63;100278.69;2088295;28;2231;-64
2024/01/24 04:03:47;;;;;;;;;;;;;;;19.57;41.65;100263.59;2085091;28;2383;-64
2024/01/24 04:04:49;;;;;;;;;;;;;;;19.56;41.71;100259.97;2083987;28;2461;-64
2024/01/24 04:05:50;;;;;;;;;;;;;;;19.56;41.72;100254.25;2089163;28;2088;-64
2024/01/24 04:06:52;;;;;;;;;;;;;;;19.55;41.71;100246.28;2088153;28;2375;-64
2024/01/24 04:07:53;;;;;;;;;;;;;;;19.55;41.86;100261.34;2084399;28;2382;-64
2024/01/24 04:08:55;;;;;;;;;;;;;;;19.54;41.82;100259.91;2088250;28;1959;-64
2024/01/24 04:09:57;;;;;;;;;;;;;;;19.56;42.02;100253.47;2086137;28;2243;-64
2024/01/24 04:10:59;;;;;;;;;;;;;;;19.55;41.81;100255.63;2084889;28;2239;-64
2024/01/24 04:12:00;;;;;;;;;;;;;;;19.57;41.83;100243.47;2085427;28;2612;-64
2024/01/24 04:13:01;;;;;;;;;;;;;;;19.57;41.79;100249.97;2084959;28;2370;-64
2024/01/24 04:14:05;;;;;;;;;;;;;;;19.59;41.80;100241.44;2084144;28;2211;-64
2024/01/24 04:15:06;;;;;;;;;;;;;;;19.59;41.89;100244.31;2084477;28;2337;-64
2024/01/24 04:16:09;;;;;;;;;;;;;;;19.59;41.82;100223.47;2082399;28;2303;-64
2024/01/24 04:17:10;;;;;;;;;;;;;;;19.58;41.85;100236.31;2086892;28;2453;-64
2024/01/24 04:18:11;;;;;;;;;;;;;;;19.58;41.95;100247.81;2085339;28;2054;-64
2024/01/24 04:19:13;;;;;;;;;;;;;;;19.58;41.96;100239.94;2085730;28;1904;-64
2024/01/24 04:20:15;;;;;;;;;;;;;;;19.61;41.88;100241.50;2084583;28;1618;-64
2024/01/24 04:21:16;;;;;;;;;;;;;;;19.60;41.96;100237.16;2086022;28;2215;-64
2024/01/24 04:22:18;;;;;;;;;;;;;;;19.61;41.87;100215.66;2084694;28;2400;-64
2024/01/24 04:23:19;;;;;;;;;;;;;;;19.61;41.86;100209.91;2084138;28;2120;-64
2024/01/24 04:24:21;;;;;;;;;;;;;;;19.63;41.86;100201.38;2085413;28;2363;-64
2024/01/24 04:25:22;;;;;;;;;;;;;;;19.64;41.78;100205.72;2084593;28;2259;-64
2024/01/24 04:26:24;;;;;;;;;;;;;;;19.63;41.77;100189.13;2088616;28;1698;-64
2024/01/24 04:27:25;;;;;;;;;;;;;;;19.63;41.88;100189.91;2084171;28;2270;-64
2024/01/24 04:28:26;;;;;;;;;;;;;;;19.64;41.95;100193.50;2085226;28;1713;-64
2024/01/24 04:29:28;;;;;;;;;;;;;;;19.62;42.08;100193.41;2085158;28;1760;-64
2024/01/24 04:30:30;;;;;;;;;;;;;;;19.63;41.93;100200.63;2082180;28;6103;-64
2024/01/24 04:31:31;;;;;;;;;;;;;;;19.64;41.81;100202.84;2085914;28;2105;-64
2024/01/24 04:32:32;;;;;;;;;;;;;;;19.64;41.82;100202.84;2085514;28;2282;-64
2024/01/24 04:33:34;;;;;;;;;;;;;;;19.64;41.96;100205.00;2085308;28;2073;-64
2024/01/24 04:34:36;;;;;;;;;;;;;;;19.64;41.89;100202.84;2085660;28;2305;-64
2024/01/24 04:35:38;;;;;;;;;;;;;;;19.65;41.92;100197.84;2086880;28;2319;-64
2024/01/24 04:36:39;;;;;;;;;;;;;;;19.64;41.93;100197.09;2086198;28;2247;-64
2024/01/24 04:37:41;;;;;;;;;;;;;;;19.63;41.85;100195.63;2082688;28;2326;-64
2024/01/24 04:38:43;;;;;;;;;;;;;;;19.64;42.01;100190.63;2086865;28;1661;-64
2024/01/24 04:39:45;;;;;;;;;;;;;;;19.63;41.96;100200.63;2083271;28;2301;-64
2024/01/24 04:40:46;;;;;;;;;;;;;;;19.63;41.92;100192.00;2087569;28;1611;-64
2024/01/24 04:41:48;;;;;;;;;;;;;;;19.64;42.00;100194.22;2086311;28;1846;-64
2024/01/24 04:42:50;;;;;;;;;;;;;;;19.63;41.99;100189.91;2084977;28;2263;-64
2024/01/24 04:43:52;;;;;;;;;;;;;;;19.63;42.08;100198.50;2089368;28;1717;-64
2024/01/24 04:44:53;;;;;;;;;;;;;;;19.63;41.96;100187.03;2086569;28;2129;-64
2024/01/24 04:45:55;;;;;;;;;;;;;;;19.62;42.01;100176.91;2083733;28;2393;-68
2024/01/24 04:46:56;;;;;;;;;;;;;;;19.62;42.04;100171.16;2082822;28;2377;-61
2024/01/24 04:47:58;;;;;;;;;;;;;;;19.62;41.98;100171.16;2087150;28;1872;-64
2024/01/24 04:48:59;;;;;;;;;;;;;;;19.64;41.98;100161.91;2087426;28;1641;-64
2024/01/24 04:50:01;;;;;;;;;;;;;;;19.64;42.00;100168.38;2082923;28;1733;-64
2024/01/24 04:51:03;;;;;;;;;;;;;;;19.65;42.07;100175.63;2082967;28;2291;-64
2024/01/24 04:52:04;;;;;;;;;;;;;;;19.64;42.07;100182.75;2082430;28;2271;-64
2024/01/24 04:53:06;;;;;;;;;;;;;;;19.66;42.10;100179.22;2085620;28;2401;-64
2024/01/24 04:54:07;;;;;;;;;;;;;;;19.64;42.13;100171.25;2084443;28;2208;-64
2024/01/24 04:55:12;;;;;;;;;;;;;;;19.66;42.07;100167.72;2086446;28;2318;-64
2024/01/24 04:56:14;;;;;;;;;;;;;;;19.67;42.04;100167.06;2084314;28;2615;-64
2024/01/24 04:57:15;;;;;;;;;;;;;;;19.66;42.09;100170.59;2083742;28;2296;-64
2024/01/24 04:58:17;;;;;;;;;;;;;;;19.67;42.09;100166.31;2087050;28;2235;-64
2024/01/24 04:59:18;;;;;;;;;;;;;;;19.69;42.01;100166.44;2086027;28;1613;-64
2024/01/24 05:00:19;;;;;;;;;;;;;;;19.70;42.08;100158.53;2085329;28;6278;-64
2024/01/24 05:01:21;;;;;;;;;;;;;;;19.70;42.02;100164.28;2085763;28;2290;-64
2024/01/24 05:02:22;;;;;;;;;;;;;;;19.71;42.05;100171.53;2080937;28;2282;-65
2024/01/24 05:03:24;;;;;;;;;;;;;;;19.71;42.03;100177.28;2083623;28;2350;-64
2024/01/24 05:04:26;;;;;;;;;;;;;;;19.72;42.06;100173.00;2086063;28;2151;-64
2024/01/24 05:05:27;;;;;;;;;;;;;;;19.71;42.03;100165.78;2086232;28;1840;-64
2024/01/24 05:06:29;;;;;;;;;;;;;;;19.70;41.98;100162.19;2085063;28;1934;-64
2024/01/24 05:07:30;;;;;;;;;;;;;;;19.70;41.94;100173.66;2083382;28;2222;-64
2024/01/24 05:08:32;;;;;;;;;;;;;;;19.70;42.01;100159.31;2099447;28;2213;-64
2024/01/24 05:09:33;;;;;;;;;;;;;;;19.72;42.14;100173.00;2093880;28;1991;-63
2024/01/24 05:10:34;;;;;;;;;;;;;;;19.70;42.05;100165.03;2086006;28;2475;-64
2024/01/24 05:11:39;;;;;;;;;;;;;;;19.70;42.15;100161.41;2089303;28;2605;-64
2024/01/24 05:12:40;;;;;;;;;;;;;;;19.70;42.10;100155.66;2088323;28;1781;-64
2024/01/24 05:13:42;;;;;;;;;;;;;;;19.71;42.12;100160.03;2089475;28;2033;-64
2024/01/24 05:14:43;;;;;;;;;;;;;;;19.70;42.10;100170.03;2087843;28;1764;-64
2024/01/24 05:15:45;;;;;;;;;;;;;;;19.70;42.16;100164.28;2084836;28;2412;-64
2024/01/24 05:16:49;;;;;;;;;;;;;;;19.70;42.06;100170.03;2083003;28;2312;-64
2024/01/24 05:17:50;;;;;;;;;;;;;;;19.70;42.14;100164.28;2083816;28;2313;-64
2024/01/24 05:18:52;;;;;;;;;;;;;;;19.69;42.10;100157.09;2083848;28;1968;-64
2024/01/24 05:19:53;;;;;;;;;;;;;;;19.67;42.13;100149.81;2082973;28;2271;-64
2024/01/24 05:20:55;;;;;;;;;;;;;;;19.69;42.17;100157.09;2084771;28;2556;-64